Time;durP1;ratioP1;P1;durP2;ratioP2;P2;SDS_P1;SDS_P2;PMS_P1;PMS_P2;Temp;Humidity;BMP_temperature;BMP_pressure;BME280_temperature;BME280_humidity;BME280_pressure;Samples;Min_cycle;Max_cycle;Signal;HPM_P1;HPM_P2
2021/07/15 00:00:25;;;;;;;4.47;4.13;;;;;;;14.02;100.00;97568.34;4983657;28;20233;-69
2021/07/15 00:02:55;;;;;;;4.43;4.23;;;;;;;13.95;100.00;97575.44;4982975;28;20226;-69
2021/07/15 00:05:24;;;;;;;5.00;4.60;;;;;;;13.88;100.00;97572.78;4986928;28;20639;-69
2021/07/15 00:07:52;;;;;;;5.07;4.57;;;;;;;13.84;100.00;97574.19;4981025;28;20209;-69
2021/07/15 00:10:23;;;;;;;4.33;4.10;;;;;;;13.85;100.00;97580.31;4987688;28;20636;-68
2021/07/15 00:12:52;;;;;;;4.90;4.40;;;;;;;13.82;100.00;97575.38;4981783;28;20599;-69
2021/07/15 00:15:22;;;;;;;4.83;4.53;;;;;;;13.73;100.00;97575.53;4982670;28;20202;-68
2021/07/15 00:17:50;;;;;;;4.43;4.20;;;;;;;13.70;100.00;97567.09;4985029;28;20214;-69
2021/07/15 00:20:20;;;;;;;4.60;4.30;;;;;;;13.69;100.00;97571.63;4984873;28;20234;-68
2021/07/15 00:22:48;;;;;;;6.23;4.67;;;;;;;13.66;100.00;97568.50;4982102;28;20786;-69
2021/07/15 00:25:17;;;;;;;4.43;4.13;;;;;;;13.59;100.00;97573.78;4987646;28;20216;-67
2021/07/15 00:27:46;;;;;;;5.00;4.60;;;;;;;13.57;100.00;97583.78;4984441;28;20602;-70
2021/07/15 00:30:15;;;;;;;5.30;5.00;;;;;;;13.57;100.00;97578.47;4979869;28;20374;-70
2021/07/15 00:32:44;;;;;;;4.43;4.10;;;;;;;13.46;100.00;97577.19;4986338;28;20235;-68
2021/07/15 00:35:13;;;;;;;4.93;4.53;;;;;;;13.37;100.00;97576.47;4982808;28;20225;-69
2021/07/15 00:37:43;;;;;;;4.60;4.23;;;;;;;13.31;100.00;97586.03;4979106;28;20217;-68
2021/07/15 00:40:13;;;;;;;4.97;4.67;;;;;;;13.26;100.00;97583.13;4979465;28;20230;-67
2021/07/15 00:42:41;;;;;;;5.33;4.83;;;;;;;13.26;100.00;97580.47;4983105;28;20233;-68
2021/07/15 00:45:11;;;;;;;5.80;4.77;;;;;;;13.25;100.00;97581.47;4988492;28;20206;-68
2021/07/15 00:47:39;;;;;;;4.73;4.40;;;;;;;13.21;100.00;97579.38;4984979;28;20210;-66
2021/07/15 00:50:09;;;;;;;4.50;4.20;;;;;;;13.14;100.00;97574.81;4989875;28;20217;-69
2021/07/15 00:52:39;;;;;;;4.60;4.30;;;;;;;13.11;100.00;97572.56;4985812;28;20623;-69
2021/07/15 00:55:10;;;;;;;5.33;4.83;;;;;;;13.27;100.00;97579.44;4982068;28;20213;-69
2021/07/15 00:57:38;;;;;;;5.37;4.83;;;;;;;13.22;100.00;97575.69;4987819;28;20220;-71
2021/07/15 01:00:08;;;;;;;5.23;4.77;;;;;;;13.23;100.00;97574.69;4984455;28;20378;-69
2021/07/15 01:02:36;;;;;;;4.23;4.03;;;;;;;13.20;100.00;97564.44;4984602;28;20749;-70
2021/07/15 01:05:08;;;;;;;5.20;4.77;;;;;;;13.11;100.00;97569.88;4981770;28;20209;-68
2021/07/15 01:07:36;;;;;;;4.27;4.07;;;;;;;13.00;100.00;97567.75;4979357;28;20220;-68
2021/07/15 01:10:05;;;;;;;4.43;4.13;;;;;;;13.05;100.00;97577.78;4983064;28;20583;-71
2021/07/15 01:12:50;;;;;;;4.70;4.20;;;;;;;12.99;100.00;97580.22;4980289;28;20321;-70
2021/07/15 01:15:21;;;;;;;4.90;4.50;;;;;;;13.04;100.00;97584.97;4979957;28;20586;-68
2021/07/15 01:17:58;;;;;;;5.03;4.73;;;;;;;13.10;100.00;97586.88;4986159;28;20715;-68
2021/07/15 01:20:55;;;;;;;4.97;4.60;;;;;;;13.05;100.00;97588.44;4980534;28;20244;-70
2021/07/15 01:23:39;;;;;;;5.03;4.67;;;;;;;13.05;100.00;97580.47;4982998;28;20231;-69
2021/07/15 01:26:12;;;;;;;5.33;4.83;;;;;;;13.12;100.00;97587.50;4984287;28;20512;-67
2021/07/15 01:29:05;;;;;;;4.77;4.57;;;;;;;13.12;100.00;97584.84;4979048;28;20332;-69
2021/07/15 01:31:35;;;;;;;4.97;4.50;;;;;;;13.06;100.00;97582.09;4983534;28;20206;-69
2021/07/15 01:34:03;;;;;;;4.73;4.47;;;;;;;13.05;100.00;97583.13;4983102;28;20256;-69
2021/07/15 01:36:33;;;;;;;4.83;4.53;;;;;;;12.95;100.00;97573.63;4983453;28;20590;-70
2021/07/15 01:39:05;;;;;;;4.03;3.83;;;;;;;12.89;100.00;97571.72;4982052;28;20209;-71
2021/07/15 01:41:35;;;;;;;5.27;4.70;;;;;;;12.89;100.00;97571.72;4976984;28;20250;-70
2021/07/15 01:44:06;;;;;;;5.07;4.67;;;;;;;12.87;100.00;97571.91;4982140;28;20249;-69
2021/07/15 01:46:36;;;;;;;5.60;5.10;;;;;;;12.85;100.00;97575.78;4987369;28;20213;-71
2021/07/15 01:49:05;;;;;;;5.30;4.90;;;;;;;12.81;100.00;97575.31;4980166;28;20212;-68
2021/07/15 01:51:33;;;;;;;4.97;4.67;;;;;;;12.80;100.00;97584.31;4987422;28;20213;-67
2021/07/15 01:54:01;;;;;;;5.57;5.17;;;;;;;12.86;100.00;97588.06;4982902;28;20229;-68
2021/07/15 01:56:29;;;;;;;5.47;5.07;;;;;;;12.95;100.00;97586.13;4983161;28;20730;-69
2021/07/15 01:58:58;;;;;;;8.50;5.70;;;;;;;13.01;100.00;97583.50;4981804;28;20217;-68
2021/07/15 02:01:27;;;;;;;5.27;4.93;;;;;;;13.02;100.00;97576.34;4980426;28;20226;-68
2021/07/15 02:04:00;;;;;;;5.00;4.70;;;;;;;13.04;100.00;97577.00;4984045;28;20559;-69
2021/07/15 02:06:30;;;;;;;4.67;4.37;;;;;;;13.05;100.00;97586.63;4981108;28;20283;-67
2021/07/15 02:09:00;;;;;;;4.57;4.20;;;;;;;13.06;100.00;97590.91;4986251;28;20204;-70
2021/07/15 02:11:33;;;;;;;5.20;4.80;;;;;;;13.03;100.00;97584.13;4976690;28;20205;-67
2021/07/15 02:14:03;;;;;;;4.77;4.50;;;;;;;13.09;100.00;97585.22;4981893;28;20761;-70
2021/07/15 02:16:32;;;;;;;4.83;4.53;;;;;;;13.06;100.00;97585.59;4976646;28;20244;-68
2021/07/15 02:19:03;;;;;;;5.30;4.80;;;;;;;13.11;100.00;97596.50;4981316;28;20445;-68
2021/07/15 02:21:33;;;;;;;4.20;3.90;;;;;;;13.10;100.00;97597.50;4981091;28;20225;-70
2021/07/15 02:24:01;;;;;;;4.40;4.10;;;;;;;13.04;100.00;97592.94;4981004;28;20513;-68
2021/07/15 02:26:30;;;;;;;4.77;4.47;;;;;;;13.02;100.00;97594.97;4982098;28;20224;-69
2021/07/15 02:28:57;;;;;;;5.07;4.77;;;;;;;13.05;100.00;97596.41;4986587;28;20208;-69
2021/07/15 02:31:30;;;;;;;5.17;4.87;;;;;;;13.08;100.00;97596.06;4986057;28;20764;-71
2021/07/15 02:34:03;;;;;;;4.63;4.33;;;;;;;13.16;100.00;97607.38;4987964;28;20327;-73
2021/07/15 02:36:32;;;;;;;4.70;4.40;;;;;;;13.15;100.00;97602.25;4986957;28;20682;-73
2021/07/15 02:39:02;;;;;;;5.00;4.70;;;;;;;13.19;100.00;97606.19;4981103;28;20217;-71
2021/07/15 02:41:30;;;;;;;5.03;4.63;;;;;;;13.21;100.00;97612.16;4982383;28;20340;-71
2021/07/15 02:43:58;;;;;;;4.40;4.10;;;;;;;13.18;100.00;97609.88;4983505;28;20244;-74
2021/07/15 02:46:26;;;;;;;4.40;4.20;;;;;;;13.15;100.00;97620.88;4987045;28;20709;-72
2021/07/15 02:48:54;;;;;;;5.13;4.73;;;;;;;13.12;100.00;97624.75;4985678;28;20232;-73
2021/07/15 02:51:24;;;;;;;5.27;4.87;;;;;;;13.11;100.00;97624.94;4986982;28;20216;-70
2021/07/15 02:53:52;;;;;;;4.63;4.10;;;;;;;13.15;100.00;97627.03;4985484;28;20221;-74
2021/07/15 02:56:24;;;;;;;4.30;4.10;;;;;;;13.15;100.00;97632.34;4988062;28;20213;-72
2021/07/15 02:59:01;;;;;;;4.27;4.00;;;;;;;13.15;100.00;97637.66;4986759;28;20209;-73
2021/07/15 03:01:32;;;;;;;5.37;4.97;;;;;;;13.13;100.00;97639.69;4985945;28;20225;-73
2021/07/15 03:04:07;;;;;;;5.30;4.90;;;;;;;13.21;100.00;97638.75;4986524;28;20346;-72
2021/07/15 03:06:38;;;;;;;4.67;4.27;;;;;;;13.28;100.00;97636.16;4984389;28;20921;-72
2021/07/15 03:09:11;;;;;;;4.30;4.00;;;;;;;13.25;100.00;97633.84;4984697;28;20205;-72
2021/07/15 03:11:43;;;;;;;4.33;4.13;;;;;;;13.23;100.00;97636.72;4984482;28;20589;-72
2021/07/15 03:14:11;;;;;;;3.93;3.67;;;;;;;13.16;100.00;97631.31;4985190;28;20309;-70
2021/07/15 03:16:41;;;;;;;4.30;4.10;;;;;;;13.17;100.00;97632.16;4984500;28;20295;-71
2021/07/15 03:19:10;;;;;;;4.47;4.17;;;;;;;13.16;100.00;97633.19;4984332;28;20206;-74
2021/07/15 03:21:41;;;;;;;4.10;3.90;;;;;;;13.12;100.00;97639.91;4980646;28;20229;-72
2021/07/15 03:24:10;;;;;;;4.40;4.03;;;;;;;13.16;100.00;97639.31;4985861;28;20225;-71
2021/07/15 03:26:39;;;;;;;4.57;4.27;;;;;;;13.35;100.00;97638.88;4985718;28;20209;-71
2021/07/15 03:29:07;;;;;;;4.60;4.30;;;;;;;13.24;100.00;97635.72;4986331;28;20210;-72
2021/07/15 03:31:35;;;;;;;4.20;3.90;;;;;;;13.21;100.00;97638.75;4985774;28;20492;-72
2021/07/15 03:34:03;;;;;;;4.37;4.07;;;;;;;13.20;100.00;97637.09;4983943;28;20616;-72
2021/07/15 03:36:33;;;;;;;3.90;3.60;;;;;;;13.29;100.00;97637.81;4987025;28;20694;-73
2021/07/15 03:39:05;;;;;;;3.97;3.77;;;;;;;13.21;100.00;97629.94;4986355;28;20569;-72
2021/07/15 03:41:33;;;;;;;6.97;4.13;;;;;;;13.24;100.00;97630.38;4986791;28;20650;-70
2021/07/15 03:44:02;;;;;;;4.27;3.97;;;;;;;13.29;100.00;97627.16;4985228;28;20248;-71
2021/07/15 03:46:30;;;;;;;3.90;3.70;;;;;;;13.29;100.00;97629.81;4980616;28;20213;-73
2021/07/15 03:48:58;;;;;;;3.97;3.67;;;;;;;13.26;100.00;97631.03;4980639;28;20396;-72
2021/07/15 03:51:26;;;;;;;3.57;3.37;;;;;;;13.27;100.00;97629.19;4981744;28;20741;-72
2021/07/15 03:53:54;;;;;;;4.20;3.90;;;;;;;13.25;100.00;97623.22;4983458;28;20225;-71
2021/07/15 03:56:24;;;;;;;3.77;3.50;;;;;;;13.26;100.00;97619.56;4979987;28;20221;-71
2021/07/15 03:58:52;;;;;;;3.70;3.53;;;;;;;13.25;100.00;97617.88;4981503;28;20213;-72
2021/07/15 04:01:20;;;;;;;3.23;3.03;;;;;;;13.37;100.00;97615.53;4982835;28;20649;-72
2021/07/15 04:03:54;;;;;;;3.70;3.50;;;;;;;13.33;100.00;97615.13;4981267;28;20394;-72
2021/07/15 04:06:23;;;;;;;3.57;3.37;;;;;;;13.36;100.00;97614.75;4983287;28;20209;-72
2021/07/15 04:08:52;;;;;;;5.60;3.37;;;;;;;13.23;100.00;97617.25;4984332;28;20601;-72
2021/07/15 04:11:21;;;;;;;4.13;3.30;;;;;;;13.24;100.00;97616.25;4983343;28;20206;-73
2021/07/15 04:13:52;;;;;;;3.93;3.47;;;;;;;13.25;100.00;97609.91;4983420;28;20657;-71
2021/07/15 04:16:45;;;;;;;3.47;3.27;;;;;;;13.28;100.00;97607.69;4984156;28;20217;-73
2021/07/15 04:19:14;;;;;;;4.07;3.77;;;;;;;13.23;100.00;97606.63;4980107;28;20216;-73
2021/07/15 04:21:43;;;;;;;3.57;3.27;;;;;;;13.24;100.00;97609.09;4982147;28;20370;-73
2021/07/15 04:24:11;;;;;;;4.17;3.47;;;;;;;13.21;100.00;97596.19;4985196;28;20228;-71
2021/07/15 04:26:40;;;;;;;3.73;3.43;;;;;;;13.28;100.00;97594.41;4985195;28;20582;-73
2021/07/15 04:29:10;;;;;;;3.60;3.40;;;;;;;13.32;100.00;97594.84;4982702;28;20205;-71
2021/07/15 04:31:58;;;;;;;4.60;3.40;;;;;;;13.43;100.00;97581.03;4981194;28;20237;-72
2021/07/15 04:34:29;;;;;;;3.53;3.33;;;;;;;13.42;100.00;97582.06;4982271;28;20261;-72
2021/07/15 04:36:58;;;;;;;3.30;3.10;;;;;;;13.46;100.00;97575.34;4986233;28;20206;-71
2021/07/15 04:39:26;;;;;;;3.37;3.13;;;;;;;13.55;100.00;97570.69;4981224;28;20209;-71
2021/07/15 04:41:55;;;;;;;5.00;3.07;;;;;;;13.55;100.00;97575.19;4983046;28;20734;-70
2021/07/15 04:44:26;;;;;;;3.03;2.83;;;;;;;13.58;100.00;97578.28;4984407;28;20657;-71
2021/07/15 04:46:54;;;;;;;2.97;2.70;;;;;;;13.71;100.00;97577.56;4983219;28;20559;-71
2021/07/15 04:49:22;;;;;;;3.60;3.40;;;;;;;13.89;100.00;97584.22;4981776;28;20342;-71
2021/07/15 04:51:51;;;;;;;3.10;2.90;;;;;;;13.81;100.00;97582.53;4984744;28;20294;-71
2021/07/15 04:54:19;;;;;;;2.80;2.53;;;;;;;13.86;100.00;97579.28;4983268;28;20798;-70
2021/07/15 04:56:48;;;;;;;3.00;2.60;;;;;;;13.80;100.00;97578.22;4985390;28;20214;-71
2021/07/15 04:59:16;;;;;;;2.57;2.47;;;;;;;13.84;100.00;97581.34;4980500;28;20213;-69
2021/07/15 05:01:45;;;;;;;2.60;2.40;;;;;;;13.97;100.00;97585.91;4978948;28;20233;-69
2021/07/15 05:04:13;;;;;;;2.70;2.53;;;;;;;13.99;100.00;97589.22;4984746;28;20730;-70
2021/07/15 05:06:41;;;;;;;2.70;2.50;;;;;;;14.02;100.00;97592.31;4981803;28;20217;-69
2021/07/15 05:09:09;;;;;;;2.70;2.50;;;;;;;14.13;100.00;97587.44;4985291;28;20221;-71
2021/07/15 05:11:37;;;;;;;2.80;2.60;;;;;;;14.13;100.00;97590.91;4981095;28;20638;-67
2021/07/15 05:14:05;;;;;;;3.40;2.30;;;;;;;14.26;100.00;97589.38;4977201;28;20237;-69
2021/07/15 05:16:34;;;;;;;2.63;2.53;;;;;;;14.35;100.00;97590.84;4979434;28;20284;-68
2021/07/15 05:19:03;;;;;;;1.93;1.83;;;;;;;14.32;100.00;97588.56;4978595;28;20213;-69
2021/07/15 05:21:31;;;;;;;3.23;2.33;;;;;;;14.30;100.00;97591.41;4983196;28;20681;-68
2021/07/15 05:23:59;;;;;;;3.03;2.37;;;;;;;14.50;100.00;97589.88;4980408;28;20226;-70
2021/07/15 05:26:27;;;;;;;2.70;2.47;;;;;;;14.46;100.00;97592.13;4983629;28;20264;-69
2021/07/15 05:28:57;;;;;;;5.00;2.20;;;;;;;14.53;100.00;97592.97;4980852;28;20216;-70
2021/07/15 05:31:26;;;;;;;3.33;1.90;;;;;;;14.65;100.00;97603.03;4980505;28;20328;-66
2021/07/15 05:33:54;;;;;;;5.10;2.73;;;;;;;14.64;100.00;97598.72;4981106;28;20333;-69
2021/07/15 05:36:24;;;;;;;3.20;2.17;;;;;;;14.73;100.00;97598.41;4986148;28;20233;-69
2021/07/15 05:38:52;;;;;;;1.83;1.73;;;;;;;14.68;100.00;97597.31;4982703;28;20213;-69
2021/07/15 05:41:19;;;;;;;4.30;1.77;;;;;;;14.70;100.00;97596.13;4979735;28;20201;-69
2021/07/15 05:43:47;;;;;;;3.03;1.70;;;;;;;14.75;100.00;97606.19;4984047;28;20237;-67
2021/07/15 05:46:15;;;;;;;2.27;2.07;;;;;;;14.96;100.00;97609.75;4980205;28;20205;-69
2021/07/15 05:48:43;;;;;;;3.03;2.00;;;;;;;15.15;100.00;97600.97;4980915;28;20210;-69
2021/07/15 05:51:11;;;;;;;5.70;2.40;;;;;;;15.17;100.00;97595.41;4979097;28;20208;-68
2021/07/15 05:53:40;;;;;;;6.33;2.13;;;;;;;15.16;100.00;97599.09;4984785;28;20221;-70
2021/07/15 05:56:09;;;;;;;2.00;1.50;;;;;;;15.29;100.00;97596.44;4982449;28;20217;-68
2021/07/15 05:58:37;;;;;;;6.00;1.90;;;;;;;15.35;100.00;97600.16;4980700;28;20220;-70
2021/07/15 06:01:05;;;;;;;2.20;1.80;;;;;;;15.42;100.00;97608.16;4984454;28;20205;-68
2021/07/15 06:03:33;;;;;;;2.70;1.60;;;;;;;15.43;100.00;97613.28;4983540;28;20618;-67
2021/07/15 06:06:01;;;;;;;3.37;1.37;;;;;;;15.56;100.00;97615.16;4988052;28;20720;-68
2021/07/15 06:08:29;;;;;;;3.40;1.63;;;;;;;15.71;100.00;97614.09;4986014;28;20232;-68
2021/07/15 06:10:59;;;;;;;2.87;1.43;;;;;;;15.73;100.00;97618.22;4983880;28;20217;-67
2021/07/15 06:13:26;;;;;;;1.43;1.20;;;;;;;15.75;100.00;97613.50;4983951;28;20229;-70
2021/07/15 06:15:55;;;;;;;1.13;1.00;;;;;;;15.89;100.00;97622.34;4984833;28;20304;-69
2021/07/15 06:18:23;;;;;;;2.47;1.63;;;;;;;15.83;100.00;97619.66;4983706;28;20214;-70
2021/07/15 06:20:50;;;;;;;1.43;1.03;;;;;;;16.04;100.00;97632.81;4985567;28;20649;-70
2021/07/15 06:23:18;;;;;;;0.73;0.73;;;;;;;16.28;100.00;97638.50;4987009;28;20233;-67
2021/07/15 06:25:46;;;;;;;0.90;0.87;;;;;;;16.33;100.00;97635.22;4984977;28;20221;-68
2021/07/15 06:28:16;;;;;;;0.87;0.87;;;;;;;16.61;99.28;97629.56;4984787;28;20205;-72
2021/07/15 06:30:44;;;;;;;2.60;0.90;;;;;;;16.94;97.04;97635.81;4982896;28;20216;-70
2021/07/15 06:33:12;;;;;;;2.47;0.87;;;;;;;17.34;93.18;97643.66;4983047;28;20222;-67
2021/07/15 06:35:41;;;;;;;0.53;0.50;;;;;;;17.32;91.94;97636.84;4987770;28;20216;-70
2021/07/15 06:38:10;;;;;;;2.00;0.70;;;;;;;17.47;89.68;97636.53;4984105;28;20205;-70
2021/07/15 06:40:38;;;;;;;0.60;0.60;;;;;;;17.67;87.89;97640.94;4985389;28;20205;-71
2021/07/15 06:43:06;;;;;;;1.03;0.60;;;;;;;17.78;87.38;97633.00;4985897;28;20237;-69
2021/07/15 06:45:35;;;;;;;1.03;0.70;;;;;;;17.57;89.96;97631.50;4983793;28;20217;-69
2021/07/15 06:48:04;;;;;;;0.70;0.70;;;;;;;17.63;88.29;97637.88;4986347;28;20345;-70
2021/07/15 06:50:32;;;;;;;0.90;0.90;;;;;;;17.44;89.01;97640.50;4983417;28;20217;-69
2021/07/15 06:53:00;;;;;;;0.60;0.60;;;;;;;17.42;89.71;97637.19;4987062;28;20229;-69
2021/07/15 06:55:29;;;;;;;0.60;0.60;;;;;;;17.68;88.67;97632.66;4982812;28;20484;-71
2021/07/15 06:57:57;;;;;;;1.33;0.90;;;;;;;17.84;86.15;97630.50;4982925;28;20941;-69
2021/07/15 07:00:25;;;;;;;0.63;0.63;;;;;;;17.57;85.99;97642.22;4986162;28;20205;-68
2021/07/15 07:02:54;;;;;;;0.77;0.77;;;;;;;17.83;84.65;97647.63;4983825;28;20244;-71
2021/07/15 07:05:22;;;;;;;0.73;0.73;;;;;;;17.50;85.63;97644.16;4984555;28;20205;-70
2021/07/15 07:07:50;;;;;;;0.80;0.80;;;;;;;17.65;85.91;97638.47;4982776;28;20446;-69
2021/07/15 07:10:18;;;;;;;1.60;0.70;;;;;;;17.81;86.19;97633.63;4982672;28;20602;-71
2021/07/15 07:12:47;;;;;;;0.83;0.80;;;;;;;18.03;84.04;97636.75;4984118;28;20229;-70
2021/07/15 07:15:17;;;;;;;0.67;0.50;;;;;;;18.11;83.60;97630.25;4986756;28;20210;-71
2021/07/15 07:17:45;;;;;;;0.50;0.50;;;;;;;18.35;83.29;97632.06;4985302;28;20762;-69
2021/07/15 07:20:15;;;;;;;1.90;0.50;;;;;;;18.72;80.12;97631.22;4977962;28;20260;-69
2021/07/15 07:22:43;;;;;;;0.67;0.67;;;;;;;18.62;82.02;97625.56;4981367;28;20237;-69
2021/07/15 07:25:14;;;;;;;1.57;0.60;;;;;;;18.45;81.76;97636.09;4981653;28;20689;-69
2021/07/15 07:27:42;;;;;;;0.87;0.70;;;;;;;18.65;80.70;97627.81;4981193;28;20236;-70
2021/07/15 07:30:12;;;;;;;0.60;0.60;;;;;;;18.63;80.38;97637.94;4983989;28;20377;-69
2021/07/15 07:32:40;;;;;;;0.63;0.60;;;;;;;18.13;81.01;97634.38;4982330;28;20233;-71
2021/07/15 07:35:10;;;;;;;1.03;0.70;;;;;;;17.88;83.14;97639.72;4984091;28;20201;-68
2021/07/15 07:37:39;;;;;;;0.67;0.67;;;;;;;17.86;85.18;97639.94;4985857;28;20206;-69
2021/07/15 07:40:09;;;;;;;1.07;0.53;;;;;;;17.75;83.63;97646.81;4987711;28;20705;-69
2021/07/15 07:42:37;;;;;;;0.47;0.47;;;;;;;17.78;83.36;97641.03;4981306;28;20650;-69
2021/07/15 07:45:07;;;;;;;0.60;0.60;;;;;;;17.84;82.88;97647.38;4987525;28;20208;-68
2021/07/15 07:47:35;;;;;;;0.40;0.40;;;;;;;18.01;82.46;97634.28;4985827;28;20216;-69
2021/07/15 07:50:04;;;;;;;0.83;0.43;;;;;;;18.15;80.74;97639.50;4989100;28;20697;-69
2021/07/15 07:52:32;;;;;;;0.87;0.50;;;;;;;18.07;81.79;97635.25;4979639;28;20221;-71
2021/07/15 07:55:02;;;;;;;0.30;0.30;;;;;;;18.15;81.99;97642.19;4984868;28;20227;-70
2021/07/15 07:57:33;;;;;;;0.50;0.37;;;;;;;18.46;81.07;97643.94;4981320;28;20218;-70
2021/07/15 08:00:01;;;;;;;0.40;0.40;;;;;;;18.58;79.08;97641.31;4984204;28;20630;-69
2021/07/15 08:02:29;;;;;;;0.53;0.53;;;;;;;18.63;80.97;97646.00;4984840;28;20431;-69
2021/07/15 08:04:57;;;;;;;0.30;0.30;;;;;;;19.02;78.19;97641.19;4984547;28;20206;-68
2021/07/15 08:07:25;;;;;;;0.40;0.40;;;;;;;18.51;79.00;97651.28;4984191;28;20236;-70
2021/07/15 08:09:53;;;;;;;0.77;0.50;;;;;;;18.51;80.09;97640.56;4984336;28;20682;-69
2021/07/15 08:12:22;;;;;;;1.40;0.90;;;;;;;18.71;81.74;97637.63;4978377;28;20210;-68
2021/07/15 08:14:50;;;;;;;0.60;0.60;;;;;;;18.65;81.51;97638.53;4981821;28;20206;-68
2021/07/15 08:17:18;;;;;;;0.90;0.90;;;;;;;18.94;80.38;97636.13;4982795;28;20228;-71
2021/07/15 08:19:46;;;;;;;3.07;1.20;;;;;;;19.08;79.33;97644.84;4970713;28;20210;-71
2021/07/15 08:22:14;;;;;;;1.13;1.00;;;;;;;19.19;78.01;97640.56;4975737;28;20233;-72
2021/07/15 08:24:42;;;;;;;0.40;0.40;;;;;;;18.93;77.72;97637.16;4978528;28;20717;-69
2021/07/15 08:27:10;;;;;;;0.50;0.50;;;;;;;18.69;78.75;97636.25;4980533;28;20205;-71
2021/07/15 08:29:39;;;;;;;1.23;0.60;;;;;;;18.75;79.91;97638.00;4980218;28;20683;-70
2021/07/15 08:32:08;;;;;;;1.60;0.67;;;;;;;18.84;79.65;97642.03;4981987;28;20220;-71
2021/07/15 08:34:36;;;;;;;1.27;0.70;;;;;;;19.52;77.16;97641.94;4980961;28;20682;-69
2021/07/15 08:37:04;;;;;;;0.40;0.40;;;;;;;19.29;75.04;97643.53;4981976;28;20305;-70
2021/07/15 08:39:32;;;;;;;1.23;0.40;;;;;;;19.08;76.78;97634.91;4982733;28;20209;-70
2021/07/15 08:42:00;;;;;;;0.60;0.60;;;;;;;19.09;76.27;97638.44;4984858;28;20221;-70
2021/07/15 08:44:29;;;;;;;0.47;0.47;;;;;;;19.07;77.14;97637.84;4982537;28;20243;-70
2021/07/15 08:47:01;;;;;;;0.30;0.30;;;;;;;19.19;76.47;97641.38;4980357;28;20210;-69
2021/07/15 08:49:30;;;;;;;0.57;0.53;;;;;;;18.89;77.70;97644.03;4982119;28;20233;-71
2021/07/15 08:51:58;;;;;;;1.23;1.00;;;;;;;18.83;77.63;97644.94;4982373;28;20213;-69
2021/07/15 08:54:34;;;;;;;0.70;0.70;;;;;;;18.97;77.84;97640.22;4981169;28;20217;-69
2021/07/15 08:57:01;;;;;;;1.10;0.47;;;;;;;19.24;76.90;97646.88;4983110;28;20891;-70
2021/07/15 08:59:29;;;;;;;1.03;0.33;;;;;;;19.21;75.79;97649.22;4983911;28;20212;-72
2021/07/15 09:01:59;;;;;;;0.37;0.20;;;;;;;19.36;74.03;97652.28;4982006;28;20694;-71
2021/07/15 09:04:29;;;;;;;0.20;0.20;;;;;;;19.27;74.07;97653.69;4981599;28;20809;-70
2021/07/15 09:06:57;;;;;;;1.40;0.57;;;;;;;19.44;75.51;97648.47;4981645;28;20575;-70
2021/07/15 09:09:25;;;;;;;1.80;1.10;;;;;;;19.71;74.00;97641.84;4983098;28;20201;-69
2021/07/15 09:11:53;;;;;;;0.60;0.40;;;;;;;19.87;72.20;97646.53;4980445;28;20210;-70
2021/07/15 09:14:22;;;;;;;0.30;0.30;;;;;;;19.68;72.70;97645.81;4981100;28;20258;-68
2021/07/15 09:16:51;;;;;;;0.30;0.30;;;;;;;19.94;71.35;97641.06;4981984;28;20311;-69
2021/07/15 09:19:23;;;;;;;0.40;0.40;;;;;;;20.73;69.48;97644.38;4979291;28;20205;-70
2021/07/15 09:21:51;;;;;;;0.40;0.20;;;;;;;20.67;66.54;97644.28;4983536;28;20245;-71
2021/07/15 09:24:31;;;;;;;0.30;0.30;;;;;;;21.07;67.22;97641.81;4982482;28;20230;-70
2021/07/15 09:27:00;;;;;;;0.20;0.20;;;;;;;21.40;65.19;97648.34;4981188;28;20201;-72
2021/07/15 09:29:28;;;;;;;1.60;0.40;;;;;;;21.56;63.80;97641.34;4982421;28;20205;-70
2021/07/15 09:31:58;;;;;;;0.40;0.30;;;;;;;21.79;60.88;97647.69;4982471;28;20214;-71
2021/07/15 09:34:31;;;;;;;0.20;0.20;;;;;;;21.46;61.40;97651.97;4982485;28;20275;-69
2021/07/15 09:36:59;;;;;;;1.10;0.87;;;;;;;21.01;63.47;97648.19;4978319;28;20981;-69
2021/07/15 09:39:42;;;;;;;3.30;1.00;;;;;;;20.80;63.50;97654.00;4983444;28;20205;-70
2021/07/15 09:42:15;;;;;;;0.27;0.23;;;;;;;20.99;60.30;97651.09;4982268;28;20213;-70
2021/07/15 09:44:46;;;;;;;0.40;0.40;;;;;;;20.67;63.83;97643.47;4983409;28;20733;-69
2021/07/15 09:47:38;;;;;;;0.20;0.20;;;;;;;20.53;65.10;97651.78;4980540;28;20202;-69
2021/07/15 09:50:27;;;;;;;0.33;0.33;;;;;;;20.61;64.79;97657.84;4980300;28;20256;-69
2021/07/15 09:53:15;;;;;;;0.60;0.43;;;;;;;20.66;63.72;97653.41;4980284;28;20225;-69
2021/07/15 09:55:43;;;;;;;0.43;0.40;;;;;;;20.37;66.36;97649.84;4980810;28;20446;-70
2021/07/15 09:58:12;;;;;;;0.30;0.30;;;;;;;20.37;66.39;97644.47;4980457;28;20201;-68
2021/07/15 10:00:42;;;;;;;0.80;0.80;;;;;;;20.32;65.39;97647.84;4982891;28;20217;-70
2021/07/15 10:03:12;;;;;;;0.47;0.47;;;;;;;20.21;66.79;97660.25;4979134;28;20234;-68
2021/07/15 10:05:51;;;;;;;0.23;0.23;;;;;;;20.34;66.22;97658.38;4980276;28;20570;-69
2021/07/15 10:08:26;;;;;;;1.17;0.37;;;;;;;20.35;67.14;97654.63;4981241;28;20205;-68
2021/07/15 10:10:54;;;;;;;0.57;0.57;;;;;;;20.38;65.08;97654.97;4978657;28;20217;-67
2021/07/15 10:13:24;;;;;;;0.97;0.33;;;;;;;20.48;65.10;97658.97;4983008;28;20226;-72
2021/07/15 10:15:52;;;;;;;0.97;0.47;;;;;;;20.62;64.45;97659.50;4979023;28;20206;-70
2021/07/15 10:18:38;;;;;;;3.83;0.50;;;;;;;20.68;64.83;97661.25;4979913;28;20201;-70
2021/07/15 10:21:09;;;;;;;0.50;0.50;;;;;;;;;;4982486;28;20202;-70
2021/07/15 10:23:38;;;;;;;0.30;0.30;;;;;;;20.52;63.61;97669.00;4979053;28;20229;-69
2021/07/15 10:26:25;;;;;;;0.93;0.73;;;;;;;20.22;63.58;97664.56;4981844;28;20210;-69
2021/07/15 10:28:54;;;;;;;0.40;0.40;;;;;;;20.14;65.28;97667.63;4983285;28;20214;-69
2021/07/15 10:31:23;;;;;;;2.27;0.60;;;;;;;20.09;66.39;97660.28;4980240;28;20209;-69
2021/07/15 10:33:53;;;;;;;0.50;0.50;;;;;;;20.27;67.66;97666.56;4983301;28;20240;-70
2021/07/15 10:36:23;;;;;;;0.50;0.40;;;;;;;20.27;66.54;97655.81;4980139;28;20252;-69
2021/07/15 10:38:52;;;;;;;0.63;0.40;;;;;;;20.25;68.88;97668.69;4983258;28;20218;-68
2021/07/15 10:41:22;;;;;;;0.50;0.50;;;;;;;20.08;69.20;97658.63;4982613;28;20233;-72
2021/07/15 10:43:50;;;;;;;0.70;0.40;;;;;;;20.00;66.92;97671.59;4979919;28;20238;-69
2021/07/15 10:46:18;;;;;;;0.30;0.30;;;;;;;20.02;67.02;97664.13;4982816;28;20221;-71
2021/07/15 10:48:48;;;;;;;0.63;0.63;;;;;;;20.06;67.07;97676.84;4982954;28;20202;-70
2021/07/15 10:51:16;;;;;;;0.40;0.40;;;;;;;19.93;68.08;97677.91;4985724;28;20210;-70
2021/07/15 10:53:45;;;;;;;0.90;0.60;;;;;;;19.79;69.37;97668.38;4981906;28;20606;-69
2021/07/15 10:56:17;;;;;;;1.93;0.87;;;;;;;19.67;67.43;97671.06;4984431;28;20582;-71
2021/07/15 10:58:46;;;;;;;0.50;0.47;;;;;;;19.58;70.21;97670.59;4983249;28;20585;-71
2021/07/15 11:01:40;;;;;;;0.63;0.63;;;;;;;19.47;69.26;97671.34;4986676;28;20423;-71
2021/07/15 11:04:10;;;;;;;0.50;0.50;;;;;;;19.56;67.49;97672.69;4984408;28;20225;-69
2021/07/15 11:06:40;;;;;;;0.30;0.30;;;;;;;19.26;70.16;97673.53;4985369;28;20243;-70
2021/07/15 11:09:12;;;;;;;0.50;0.50;;;;;;;19.25;70.74;97679.94;4985468;28;20585;-70
2021/07/15 11:11:42;;;;;;;0.30;0.30;;;;;;;19.29;70.95;97677.59;4987015;28;20209;-69
2021/07/15 11:14:38;;;;;;;0.30;0.30;;;;;;;18.98;71.82;97682.97;4983396;28;20225;-69
2021/07/15 11:17:26;;;;;;;0.53;0.53;;;;;;;18.94;72.53;97676.38;4976479;28;20235;-68
2021/07/15 11:20:06;;;;;;;0.30;0.30;;;;;;;19.08;72.34;97683.25;4984542;28;20220;-69
2021/07/15 11:22:45;;;;;;;0.60;0.60;;;;;;;19.05;74.97;97686.38;4980658;28;20221;-70
2021/07/15 11:25:17;;;;;;;0.70;0.70;;;;;;;18.95;74.60;97689.59;4984963;28;20249;-70
2021/07/15 11:27:52;;;;;;;0.40;0.40;;;;;;;18.71;77.13;97693.19;4975311;28;20597;-69
2021/07/15 11:30:46;;;;;;;0.60;0.60;;;;;;;18.49;80.71;97697.13;4984469;28;20255;-70
2021/07/15 11:33:34;;;;;;;0.40;0.40;;;;;;;18.13;84.57;97698.72;4981291;28;20226;-71
2021/07/15 11:36:07;;;;;;;0.40;0.40;;;;;;;17.95;85.00;97702.16;4984329;28;20205;-69
2021/07/15 11:38:38;;;;;;;0.47;0.47;;;;;;;17.86;86.65;97700.78;4982301;28;20210;-70
2021/07/15 11:41:09;;;;;;;1.60;0.50;;;;;;;17.64;84.83;97712.69;4982738;28;20217;-68
2021/07/15 11:43:40;;;;;;;0.43;0.43;;;;;;;17.63;85.91;97713.72;4983396;28;20679;-70